Time;durP1;ratioP1;P1;durP2;ratioP2;P2;SDS_P1;SDS_P2;PMS_P1;PMS_P2;Temp;Humidity;BMP_temperature;BMP_pressure;BME280_temperature;BME280_humidity;BME280_pressure;Samples;Min_cycle;Max_cycle;Signal;HPM_P1;HPM_P2
2022/06/08 00:00:36;;;;;;;;;;;11.90;99.90;;;;;;5112456;27;19980;-78
2022/06/08 00:03:11;;;;;;;;;;;11.80;99.90;;;;;;5124049;27;19928;-79
2022/06/08 00:05:37;;;;;;;;;;;11.80;99.90;;;;;;5129056;27;20393;-78
2022/06/08 00:08:03;;;;;;;;;;;11.80;99.90;;;;;;5124259;27;19924;-79
2022/06/08 00:10:29;;;;;;;;;;;11.80;99.90;;;;;;5112877;27;20026;-79
2022/06/08 00:12:54;;;;;;;;;;;11.80;99.90;;;;;;5126640;27;19924;-79
2022/06/08 00:15:20;;;;;;;;;;;11.80;99.90;;;;;;5113116;28;20397;-79
2022/06/08 00:17:46;;;;;;;;;;;11.70;99.90;;;;;;5113567;28;19930;-78
2022/06/08 00:20:12;;;;;;;;;;;11.70;99.90;;;;;;5113680;28;20018;-78
2022/06/08 00:22:37;;;;;;;;;;;11.70;99.90;;;;;;5111712;28;19934;-79
2022/06/08 00:25:04;;;;;;;;;;;11.70;99.90;;;;;;5113115;28;19951;-79
2022/06/08 00:27:30;;;;;;;;;;;11.60;99.90;;;;;;5126771;27;19952;-79
2022/06/08 00:29:55;;;;;;;;;;;11.60;99.90;;;;;;5112104;28;19924;-79
2022/06/08 00:32:21;;;;;;;;;;;11.60;99.90;;;;;;5113540;28;19923;-79
2022/06/08 00:34:46;;;;;;;;;;;11.60;99.90;;;;;;5126328;27;19923;-78
2022/06/08 00:37:12;;;;;;;;;;;11.50;99.90;;;;;;5112854;28;20014;-79
2022/06/08 00:39:37;;;;;;;;;;;11.50;99.90;;;;;;5113189;28;19923;-78
2022/06/08 00:42:08;;;;;;;;;;;11.50;99.90;;;;;;5111930;28;19928;-79
2022/06/08 00:44:40;;;;;;;;;;;11.50;99.90;;;;;;5123113;27;19968;-78
2022/06/08 00:47:07;;;;;;;;;;;11.50;99.90;;;;;;5114593;27;19931;-79
2022/06/08 00:49:37;;;;;;;;;;;11.50;99.90;;;;;;5112795;27;19924;-78
2022/06/08 00:52:03;;;;;;;;;;;11.50;99.90;;;;;;5111712;28;19923;-79
2022/06/08 00:54:31;;;;;;;;;;;11.40;99.90;;;;;;5111787;28;19923;-78
2022/06/08 00:56:59;;;;;;;;;;;11.40;99.90;;;;;;5110798;28;19931;-79
2022/06/08 00:59:25;;;;;;;;;;;11.40;99.90;;;;;;5111650;28;19924;-78
2022/06/08 01:01:50;;;;;;;;;;;11.40;99.90;;;;;;5105150;28;19923;-79
2022/06/08 01:04:17;;;;;;;;;;;11.40;99.90;;;;;;5114204;27;20365;-79
2022/06/08 01:06:44;;;;;;;;;;;11.40;99.90;;;;;;5111868;27;19950;-79
2022/06/08 01:09:30;;;;;;;;;;;11.40;99.90;;;;;;5111685;28;20001;-79
2022/06/08 01:11:57;;;;;;;;;;;11.30;99.90;;;;;;5123470;27;19927;-79
2022/06/08 01:14:23;;;;;;;;;;;11.30;99.90;;;;;;5128260;27;19928;-79
2022/06/08 01:16:56;;;;;;;;;;;11.30;99.90;;;;;;5111090;28;20022;-78
2022/06/08 01:19:21;;;;;;;;;;;11.30;99.90;;;;;;5110994;28;19924;-78
2022/06/08 01:21:51;;;;;;;;;;;11.30;99.90;;;;;;5111042;28;20019;-78
2022/06/08 01:24:17;;;;;;;;;;;11.30;99.90;;;;;;5112040;27;19923;-79
2022/06/08 01:26:48;;;;;;;;;;;11.20;99.90;;;;;;5093912;28;20420;-78
2022/06/08 01:29:33;;;;;;;;;;;11.20;99.90;;;;;;5112160;28;19924;-79
2022/06/08 01:32:17;;;;;;;;;;;11.20;99.90;;;;;;5111985;27;19924;-78
2022/06/08 01:35:02;;;;;;;;;;;11.20;99.90;;;;;;5114265;27;20047;-79
2022/06/08 01:37:31;;;;;;;;;;;11.20;99.90;;;;;;5118001;27;19931;-78
2022/06/08 01:40:02;;;;;;;;;;;11.20;99.90;;;;;;5112149;28;19931;-78
2022/06/08 01:42:39;;;;;;;;;;;11.20;99.90;;;;;;5110565;28;19931;-78
2022/06/08 01:45:29;;;;;;;;;;;11.20;99.90;;;;;;5116768;27;19931;-79
2022/06/08 01:48:07;;;;;;;;;;;11.20;99.90;;;;;;5112085;28;19924;-79
2022/06/08 01:50:55;;;;;;;;;;;11.20;99.90;;;;;;5130751;27;19984;-78
2022/06/08 01:53:30;;;;;;;;;;;11.20;99.90;;;;;;5124978;27;19928;-79
2022/06/08 01:55:58;;;;;;;;;;;11.10;99.90;;;;;;5124990;27;19930;-79
2022/06/08 01:58:23;;;;;;;;;;;11.10;99.90;;;;;;5127220;27;19923;-79
2022/06/08 02:00:54;;;;;;;;;;;11.10;99.90;;;;;;5115539;27;19923;-80
2022/06/08 02:03:28;;;;;;;;;;;11.10;99.90;;;;;;5125021;27;20285;-79
2022/06/08 02:05:58;;;;;;;;;;;11.10;99.90;;;;;;5113924;27;19923;-79
2022/06/08 02:08:27;;;;;;;;;;;11.10;99.90;;;;;;5101695;28;19924;-79
2022/06/08 02:11:12;;;;;;;;;;;11.00;99.90;;;;;;5111160;28;20440;-79
2022/06/08 02:13:41;;;;;;;;;;;11.00;99.90;;;;;;5091695;28;20343;-79
2022/06/08 02:16:09;;;;;;;;;;;11.00;99.90;;;;;;5125494;27;19924;-79
2022/06/08 02:18:37;;;;;;;;;;;10.90;99.90;;;;;;5119897;27;19932;-78
2022/06/08 02:21:09;;;;;;;;;;;10.90;99.90;;;;;;5130506;27;19923;-79
2022/06/08 02:23:55;;;;;;;;;;;10.90;99.90;;;;;;5126049;27;19957;-79
2022/06/08 02:26:32;;;;;;;;;;;10.90;99.90;;;;;;5121683;27;19925;-79
2022/06/08 02:29:15;;;;;;;;;;;10.90;99.90;;;;;;5118069;27;20369;-78
2022/06/08 02:31:43;;;;;;;;;;;10.90;99.90;;;;;;5117360;27;19936;-79
2022/06/08 02:34:31;;;;;;;;;;;10.80;99.90;;;;;;5130190;27;19969;-79
2022/06/08 02:37:12;;;;;;;;;;;10.90;99.90;;;;;;5118642;27;19927;-79
2022/06/08 02:39:44;;;;;;;;;;;10.90;99.90;;;;;;5131592;27;20424;-79
2022/06/08 02:42:15;;;;;;;;;;;10.80;99.90;;;;;;5130042;27;19930;-79
2022/06/08 02:44:42;;;;;;;;;;;10.80;99.90;;;;;;5130028;27;19950;-79
2022/06/08 02:47:18;;;;;;;;;;;10.80;99.90;;;;;;5129571;27;19976;-78
2022/06/08 02:49:44;;;;;;;;;;;10.70;99.90;;;;;;5130197;27;20638;-79
2022/06/08 02:52:16;;;;;;;;;;;10.70;99.90;;;;;;5130994;27;19944;-79
2022/06/08 02:54:42;;;;;;;;;;;10.80;99.90;;;;;;5120376;27;20385;-78
2022/06/08 02:57:11;;;;;;;;;;;10.70;99.90;;;;;;5129229;27;19937;-79
2022/06/08 02:59:44;;;;;;;;;;;10.70;99.90;;;;;;5127360;27;19924;-79
2022/06/08 03:02:16;;;;;;;;;;;10.70;99.90;;;;;;5114970;27;20351;-79
2022/06/08 03:04:42;;;;;;;;;;;10.70;99.90;;;;;;5126878;27;19971;-78
2022/06/08 03:07:10;;;;;;;;;;;10.60;99.90;;;;;;5109067;28;20016;-79
2022/06/08 03:09:37;;;;;;;;;;;10.60;99.90;;;;;;5109060;28;20420;-78
2022/06/08 03:12:05;;;;;;;;;;;10.60;99.90;;;;;;5118621;27;20282;-79
2022/06/08 03:14:31;;;;;;;;;;;10.60;99.90;;;;;;5114791;27;19935;-79
2022/06/08 03:17:02;;;;;;;;;;;10.60;99.90;;;;;;5106013;28;19924;-78
2022/06/08 03:19:29;;;;;;;;;;;10.70;99.90;;;;;;5109090;28;19971;-79
2022/06/08 03:21:55;;;;;;;;;;;10.70;99.90;;;;;;5108592;28;20028;-79
2022/06/08 03:24:21;;;;;;;;;;;10.60;99.90;;;;;;5108991;28;20416;-78
2022/06/08 03:26:49;;;;;;;;;;;10.60;99.90;;;;;;5108964;28;19923;-79
2022/06/08 03:29:15;;;;;;;;;;;10.70;99.90;;;;;;5117924;28;19924;-78
2022/06/08 03:31:41;;;;;;;;;;;10.70;99.90;;;;;;5126914;27;20393;-78
2022/06/08 03:34:06;;;;;;;;;;;10.70;99.90;;;;;;5121735;27;19924;-79
2022/06/08 03:36:32;;;;;;;;;;;10.70;99.90;;;;;;5109200;28;20026;-78
2022/06/08 03:38:57;;;;;;;;;;;10.70;99.90;;;;;;5108987;28;20444;-79
2022/06/08 03:41:23;;;;;;;;;;;10.70;99.90;;;;;;5108603;28;20255;-79
2022/06/08 03:43:48;;;;;;;;;;;10.70;99.90;;;;;;5122894;27;19930;-78
2022/06/08 03:46:15;;;;;;;;;;;10.70;99.90;;;;;;5108977;28;19932;-78
2022/06/08 03:48:41;;;;;;;;;;;10.70;99.90;;;;;;5108655;28;19923;-78
2022/06/08 03:51:07;;;;;;;;;;;10.60;99.90;;;;;;5117130;28;19969;-78
2022/06/08 03:53:40;;;;;;;;;;;10.70;99.90;;;;;;5115700;28;20003;-78
2022/06/08 03:56:06;;;;;;;;;;;10.70;99.90;;;;;;5108026;28;19932;-79
2022/06/08 03:58:32;;;;;;;;;;;10.60;99.90;;;;;;5108707;28;20007;-79
2022/06/08 04:00:58;;;;;;;;;;;10.60;99.90;;;;;;5114355;28;20038;-78
2022/06/08 04:03:24;;;;;;;;;;;10.70;99.90;;;;;;5126261;27;19929;-79
2022/06/08 04:05:50;;;;;;;;;;;10.60;99.90;;;;;;5126586;27;20010;-79
2022/06/08 04:08:15;;;;;;;;;;;10.60;99.90;;;;;;5118729;28;20274;-78
2022/06/08 04:10:41;;;;;;;;;;;10.70;99.90;;;;;;5124926;27;20432;-78
2022/06/08 04:13:06;;;;;;;;;;;10.70;99.90;;;;;;5120678;27;19923;-78
2022/06/08 04:15:44;;;;;;;;;;;10.70;99.90;;;;;;5128742;27;19950;-79
2022/06/08 04:18:10;;;;;;;;;;;10.80;99.90;;;;;;5130234;27;19924;-78
2022/06/08 04:20:36;;;;;;;;;;;10.80;99.90;;;;;;5128092;27;19923;-78
2022/06/08 04:23:02;;;;;;;;;;;10.80;99.90;;;;;;5121264;27;19931;-78
2022/06/08 04:25:28;;;;;;;;;;;10.90;99.90;;;;;;5129225;27;20031;-79
2022/06/08 04:27:53;;;;;;;;;;;10.90;99.90;;;;;;5129017;28;20014;-78
2022/06/08 04:30:19;;;;;;;;;;;11.00;99.90;;;;;;5128718;27;19931;-78
2022/06/08 04:32:45;;;;;;;;;;;11.00;99.90;;;;;;5131856;27;20013;-79
2022/06/08 04:35:11;;;;;;;;;;;11.10;99.90;;;;;;5132313;27;20377;-79
2022/06/08 04:37:37;;;;;;;;;;;11.10;99.90;;;;;;5132696;27;19935;-79
2022/06/08 04:40:04;;;;;;;;;;;11.10;99.90;;;;;;5134012;27;19927;-79
2022/06/08 04:42:30;;;;;;;;;;;11.20;99.90;;;;;;5132401;27;20441;-79
2022/06/08 04:44:55;;;;;;;;;;;11.20;99.90;;;;;;5115238;27;19924;-79
2022/06/08 04:47:21;;;;;;;;;;;11.30;99.90;;;;;;5122947;27;19936;-78
2022/06/08 04:49:47;;;;;;;;;;;11.30;99.90;;;;;;5114187;27;19973;-79
2022/06/08 04:52:12;;;;;;;;;;;11.40;99.90;;;;;;5132498;27;19924;-79
2022/06/08 04:54:38;;;;;;;;;;;11.40;99.90;;;;;;5114618;27;19930;-79
2022/06/08 04:57:03;;;;;;;;;;;11.50;99.90;;;;;;5132470;27;19928;-79
2022/06/08 04:59:29;;;;;;;;;;;11.50;99.90;;;;;;5133332;27;19958;-78
2022/06/08 05:01:54;;;;;;;;;;;11.60;99.90;;;;;;5132017;27;19923;-79
2022/06/08 05:04:20;;;;;;;;;;;11.70;99.90;;;;;;5131834;27;19984;-78
2022/06/08 05:06:46;;;;;;;;;;;11.70;99.90;;;;;;5132347;27;20300;-79
2022/06/08 05:09:12;;;;;;;;;;;11.80;99.90;;;;;;5131827;27;19923;-79
2022/06/08 05:11:37;;;;;;;;;;;12.00;99.90;;;;;;5132014;27;19930;-78
2022/06/08 05:14:03;;;;;;;;;;;12.10;99.90;;;;;;5122460;27;19923;-79
2022/06/08 05:16:28;;;;;;;;;;;12.30;99.90;;;;;;5132106;27;20335;-79
2022/06/08 05:18:54;;;;;;;;;;;12.40;99.90;;;;;;5132782;27;19923;-79
2022/06/08 05:21:20;;;;;;;;;;;12.50;99.90;;;;;;5131752;27;19927;-79
2022/06/08 05:23:46;;;;;;;;;;;12.60;99.90;;;;;;5131824;27;20446;-79
2022/06/08 05:26:12;;;;;;;;;;;12.60;99.90;;;;;;5131373;27;19962;-79
2022/06/08 05:28:38;;;;;;;;;;;12.70;99.90;;;;;;5131611;27;19923;-78
2022/06/08 05:31:04;;;;;;;;;;;12.70;99.90;;;;;;5113729;27;19930;-79
2022/06/08 05:33:30;;;;;;;;;;;12.80;99.90;;;;;;5132814;27;19966;-79
2022/06/08 05:35:55;;;;;;;;;;;12.80;99.90;;;;;;5132568;27;20309;-80
2022/06/08 05:38:21;;;;;;;;;;;12.90;99.90;;;;;;5131442;27;20615;-79
2022/06/08 05:40:47;;;;;;;;;;;13.10;99.90;;;;;;5100242;27;19982;-79
2022/06/08 05:43:13;;;;;;;;;;;13.20;99.90;;;;;;5130184;27;19924;-76
2022/06/08 05:45:40;;;;;;;;;;;13.50;99.90;;;;;;5130915;27;19983;-76
2022/06/08 05:48:06;;;;;;;;;;;13.70;99.90;;;;;;5124705;27;19924;-77
2022/06/08 05:50:32;;;;;;;;;;;13.90;99.90;;;;;;5122898;27;19931;-78
2022/06/08 05:52:58;;;;;;;;;;;14.00;99.90;;;;;;5122406;27;19923;-78
2022/06/08 05:55:24;;;;;;;;;;;14.10;99.90;;;;;;5129900;27;19923;-78
2022/06/08 05:57:51;;;;;;;;;;;14.10;99.90;;;;;;5131399;27;19923;-78
2022/06/08 06:00:18;;;;;;;;;;;14.10;99.90;;;;;;5132018;27;19966;-78
2022/06/08 06:02:44;;;;;;;;;;;14.10;99.90;;;;;;5130607;27;19934;-78
2022/06/08 06:05:11;;;;;;;;;;;14.10;99.90;;;;;;5131901;27;19924;-78
2022/06/08 06:07:37;;;;;;;;;;;14.10;99.90;;;;;;5130637;27;19971;-79
2022/06/08 06:10:03;;;;;;;;;;;14.10;99.90;;;;;;5130380;27;19981;-78
2022/06/08 06:12:29;;;;;;;;;;;14.10;99.90;;;;;;5125511;27;20044;-78
2022/06/08 06:14:55;;;;;;;;;;;14.20;99.90;;;;;;5126409;27;20014;-79
2022/06/08 06:17:20;;;;;;;;;;;14.30;99.90;;;;;;5126418;27;19935;-79
2022/06/08 06:19:46;;;;;;;;;;;14.40;99.90;;;;;;5124260;27;19924;-79
2022/06/08 06:22:11;;;;;;;;;;;14.40;99.90;;;;;;5115933;27;19923;-79
2022/06/08 06:24:37;;;;;;;;;;;14.50;99.90;;;;;;5118995;27;19930;-79
2022/06/08 06:27:03;;;;;;;;;;;14.50;99.90;;;;;;5128547;27;19923;-79
2022/06/08 06:29:29;;;;;;;;;;;14.60;99.90;;;;;;5103706;28;19930;-79
2022/06/08 06:31:56;;;;;;;;;;;14.60;99.90;;;;;;5125762;27;20449;-79
2022/06/08 06:34:23;;;;;;;;;;;14.70;99.90;;;;;;5122730;27;20006;-79
2022/06/08 06:36:49;;;;;;;;;;;14.80;99.90;;;;;;5109745;28;19984;-79
2022/06/08 06:39:15;;;;;;;;;;;14.80;99.90;;;;;;5110523;28;20010;-79
2022/06/08 06:41:41;;;;;;;;;;;14.80;99.90;;;;;;5110407;28;20006;-78
2022/06/08 06:44:07;;;;;;;;;;;14.90;99.90;;;;;;5112949;27;19980;-78
2022/06/08 06:46:33;;;;;;;;;;;14.90;99.90;;;;;;5121402;27;19927;-79
2022/06/08 06:48:58;;;;;;;;;;;15.00;99.90;;;;;;5123641;27;19968;-79
2022/06/08 06:51:24;;;;;;;;;;;15.00;99.90;;;;;;5109178;28;19927;-78
2022/06/08 06:53:49;;;;;;;;;;;15.00;99.90;;;;;;5109517;28;19931;-79
2022/06/08 06:56:15;;;;;;;;;;;15.00;99.90;;;;;;5110035;28;19924;-79
2022/06/08 06:58:40;;;;;;;;;;;15.00;99.90;;;;;;5108872;28;19976;-79
2022/06/08 07:01:06;;;;;;;;;;;15.10;99.90;;;;;;5112010;28;19931;-79
2022/06/08 07:03:32;;;;;;;;;;;15.10;99.90;;;;;;5121022;27;20011;-79
2022/06/08 07:05:58;;;;;;;;;;;15.20;99.90;;;;;;5109904;27;19923;-78
2022/06/08 07:08:23;;;;;;;;;;;15.30;99.90;;;;;;5123680;27;19928;-78
2022/06/08 07:13:33;;;;;;;;;;;15.50;99.90;;;;;;5109430;28;19923;-78
2022/06/08 07:15:59;;;;;;;;;;;15.60;99.90;;;;;;5110556;28;20347;-78
2022/06/08 07:18:25;;;;;;;;;;;15.70;99.90;;;;;;5110010;28;19954;-79
2022/06/08 07:20:51;;;;;;;;;;;15.70;99.90;;;;;;5110243;28;19927;-79
2022/06/08 07:23:16;;;;;;;;;;;15.80;99.90;;;;;;5123187;27;19923;-78
2022/06/08 07:25:42;;;;;;;;;;;15.90;99.90;;;;;;5092397;28;19924;-79
2022/06/08 07:28:07;;;;;;;;;;;16.00;99.90;;;;;;5110166;28;20689;-79
2022/06/08 07:30:33;;;;;;;;;;;16.20;99.90;;;;;;5109692;28;20461;-79
2022/06/08 07:32:58;;;;;;;;;;;16.30;99.90;;;;;;5109558;28;19923;-78
2022/06/08 07:35:25;;;;;;;;;;;16.50;99.90;;;;;;5112943;28;19924;-79
2022/06/08 07:37:50;;;;;;;;;;;16.70;99.90;;;;;;5102133;28;19924;-79
2022/06/08 07:40:16;;;;;;;;;;;16.80;99.90;;;;;;5112047;27;20400;-79
2022/06/08 07:42:42;;;;;;;;;;;16.90;99.90;;;;;;5120903;28;20381;-79
2022/06/08 07:45:09;;;;;;;;;;;17.00;99.90;;;;;;5110122;28;20346;-79
2022/06/08 07:49:36;;;;;;;16.73;11.15;;;17.00;99.90;;;;;;5109337;28;20108;-79
2022/06/08 07:50:20;;;;;;;16.40;11.27;;;17.10;99.90;;;;;;5109271;28;20055;-79
2022/06/08 07:52:46;;;;;;;14.68;10.40;;;17.30;99.90;;;;;;5129112;27;20047;-79
2022/06/08 07:55:11;;;;;;;17.38;11.55;;;17.30;99.90;;;;;;5113470;27;20944;-79
2022/06/08 07:57:37;;;;;;;13.05;9.93;;;17.40;99.90;;;;;;5108095;28;20126;-78
2022/06/08 08:00:05;;;;;;;14.43;8.80;;;17.40;99.90;;;;;;5091210;28;20039;-78
2022/06/08 08:02:30;;;;;;;14.85;9.70;;;17.60;99.90;;;;;;5109394;28;20073;-78
2022/06/08 08:04:57;;;;;;;15.43;9.40;;;17.60;99.90;;;;;;5108281;28;20127;-79
2022/06/08 08:07:22;;;;;;;14.48;9.20;;;17.60;99.90;;;;;;5110820;28;20035;-78
2022/06/08 08:09:48;;;;;;;14.07;9.15;;;17.70;99.90;;;;;;5112133;28;20066;-78
2022/06/08 08:12:14;;;;;;;19.13;9.85;;;17.80;99.90;;;;;;5111997;28;20417;-78
2022/06/08 08:14:40;;;;;;;14.45;8.90;;;18.00;99.90;;;;;;5117252;27;20046;-78
2022/06/08 08:17:06;;;;;;;13.50;9.07;;;18.10;99.90;;;;;;5133622;27;20043;-78
2022/06/08 08:19:32;;;;;;;11.95;8.50;;;18.30;99.90;;;;;;5114748;27;20119;-79
2022/06/08 08:21:58;;;;;;;9.02;7.05;;;18.30;99.90;;;;;;5118529;27;20126;-78
2022/06/08 08:24:24;;;;;;;10.80;6.57;;;18.40;99.90;;;;;;5121853;27;20071;-78
2022/06/08 08:26:50;;;;;;;8.63;6.13;;;18.40;99.90;;;;;;5111528;28;20458;-79
2022/06/08 08:29:17;;;;;;;9.40;6.38;;;18.40;99.90;;;;;;5112848;28;20443;-78
2022/06/08 08:31:43;;;;;;;10.82;6.72;;;18.40;99.90;;;;;;5112672;28;20093;-78
2022/06/08 08:34:09;;;;;;;11.00;8.47;;;18.40;99.90;;;;;;5110232;28;20407;-79
2022/06/08 08:36:34;;;;;;;11.65;7.72;;;18.50;99.90;;;;;;5126059;27;20043;-79
2022/06/08 08:39:00;;;;;;;10.20;7.18;;;18.60;99.90;;;;;;5118637;27;20126;-78
2022/06/08 08:44:55;;;;;;;7.70;5.05;;;18.90;99.90;;;;;;5117626;27;20043;-79
2022/06/08 08:47:46;;;;;;;8.95;4.60;;;19.10;99.90;;;;;;5111063;28;20139;-79
2022/06/08 08:50:17;;;;;;;9.57;4.47;;;19.20;99.90;;;;;;5112142;28;20039;-79
2022/06/08 08:52:50;;;;;;;5.50;3.22;;;19.20;99.90;;;;;;5111462;28;20054;-79
2022/06/08 08:55:25;;;;;;;4.00;3.00;;;19.30;99.90;;;;;;5110812;28;20050;-78
2022/06/08 08:57:57;;;;;;;5.00;3.55;;;19.30;99.90;;;;;;5119231;27;20135;-79
2022/06/08 09:00:37;;;;;;;6.38;3.28;;;19.30;99.90;;;;;;5100058;28;20046;-78
2022/06/08 09:03:32;;;;;;;7.18;4.63;;;19.40;99.90;;;;;;5112580;28;20077;-78
2022/06/08 09:06:14;;;;;;;5.47;4.15;;;19.40;99.90;;;;;;5105512;27;20564;-79
2022/06/08 09:08:43;;;;;;;5.55;3.80;;;19.40;99.90;;;;;;5110907;28;20055;-78
2022/06/08 09:11:24;;;;;;;7.80;3.60;;;19.50;99.90;;;;;;5115261;27;20088;-79
2022/06/08 09:13:56;;;;;;;4.88;3.10;;;19.60;99.90;;;;;;5118674;27;20128;-78
2022/06/08 09:16:35;;;;;;;5.10;3.38;;;19.60;99.90;;;;;;5111629;28;20058;-79
2022/06/08 09:19:21;;;;;;;5.72;3.80;;;19.60;99.90;;;;;;5110289;28;20054;-78
2022/06/08 09:21:49;;;;;;;6.97;3.83;;;19.60;99.90;;;;;;5111574;27;20520;-78
2022/06/08 09:24:37;;;;;;;5.35;3.38;;;19.60;99.90;;;;;;5121552;27;20047;-79
2022/06/08 09:27:14;;;;;;;6.05;3.25;;;19.80;99.90;;;;;;5117261;27;20050;-78
2022/06/08 09:29:58;;;;;;;7.05;4.00;;;19.90;99.90;;;;;;5119278;27;20058;-78
2022/06/08 09:32:24;;;;;;;;;;;19.90;99.90;;;;;;5110354;28;20126;-79
2022/06/08 09:34:54;;;;;;;;;;;20.00;99.90;;;;;;5104052;28;20002;-79
2022/06/08 09:37:26;;;;;;;;;;;20.10;99.90;;;;;;5110896;28;19931;-78
2022/06/08 09:39:53;;;;;;;;;;;20.10;99.90;;;;;;5110873;28;19926;-79
2022/06/08 09:42:24;;;;;;;;;;;20.10;99.90;;;;;;5125498;27;20337;-79
2022/06/08 09:44:56;;;;;;;;;;;20.20;99.90;;;;;;5110743;28;20365;-78
2022/06/08 09:53:24;;;;;;;;;;;21.50;99.90;;;;;;5110430;28;19926;-79
2022/06/08 09:55:53;;;;;;;;;;;21.70;99.90;;;;;;5114806;27;20377;-79
2022/06/08 09:58:25;;;;;;;;;;;21.80;99.90;;;;;;5119971;27;20065;-79
2022/06/08 10:01:04;;;;;;;;;;;21.90;99.90;;;;;;5110497;28;19919;-80
2022/06/08 10:03:49;;;;;;;;;;;22.10;99.90;;;;;;5122080;27;19923;-79
2022/06/08 10:06:23;;;;;;;;;;;21.90;99.90;;;;;;5117266;27;20022;-79
2022/06/08 10:09:07;;;;;;;;;;;21.50;99.90;;;;;;5118744;27;19966;-79
2022/06/08 10:11:39;;;;;;;;;;;21.30;99.90;;;;;;5110677;28;19919;-79
2022/06/08 10:14:17;;;;;;;;;;;21.40;99.90;;;;;;5112116;27;20464;-79
2022/06/08 10:16:49;;;;;;;;;;;21.80;99.90;;;;;;5123616;27;19924;-79
2022/06/08 10:19:18;;;;;;;;;;;22.20;99.90;;;;;;5111399;27;19925;-79
2022/06/08 10:21:44;;;;;;;;;;;22.10;99.90;;;;;;5127673;27;19919;-79
2022/06/08 10:24:23;;;;;;;;;;;22.00;99.90;;;;;;5121862;27;19935;-79
2022/06/08 10:27:06;;;;;;;;;;;21.90;99.90;;;;;;5131126;27;19925;-79
2022/06/08 10:29:35;;;;;;;;;;;21.80;99.90;;;;;;5125908;27;20285;-79
2022/06/08 10:32:16;;;;;;;;;;;21.80;99.90;;;;;;5110834;27;19919;-80
2022/06/08 10:34:42;;;;;;;;;;;21.80;99.90;;;;;;5125409;27;19927;-79
2022/06/08 10:37:17;;;;;;;;;;;21.80;99.90;;;;;;5110651;28;20297;-79
2022/06/08 10:39:44;;;;;;;;;;;22.30;99.90;;;;;;5129412;27;19924;-79
2022/06/08 10:45:23;;;;;;;;;;;23.40;99.90;;;;;;5109375;28;19920;-79
2022/06/08 10:48:18;;;;;;;;;;;23.70;99.90;;;;;;5109620;28;19923;-79
2022/06/08 10:50:48;;;;;;;;;;;23.60;99.90;;;;;;5109669;28;20380;-79
2022/06/08 10:56:22;;;;;;;;;;;23.00;99.90;;;;;;5117960;27;19979;-79
2022/06/08 10:58:54;;;;;;;;;;;23.00;99.90;;;;;;5119319;27;19926;-78
2022/06/08 11:01:33;;;;;;;;;;;23.20;99.90;;;;;;5119750;27;19923;-78
2022/06/08 11:04:00;;;;;;;;;;;23.30;99.90;;;;;;5109346;28;19965;-78
2022/06/08 11:06:44;;;;;;;;;;;23.20;99.90;;;;;;5125686;27;20011;-79
2022/06/08 11:09:17;;;;;;;;;;;23.30;99.90;;;;;;5121920;27;19919;-78
2022/06/08 11:11:49;;;;;;;;;;;23.60;99.90;;;;;;5109240;28;20014;-79
2022/06/08 11:14:30;;;;;;;;;;;23.90;99.90;;;;;;5120975;27;20839;-79
2022/06/08 11:17:03;;;;;;;;;;;23.90;99.90;;;;;;5108820;28;19930;-79
2022/06/08 11:19:30;;;;;;;;;;;23.90;99.90;;;;;;5112317;27;20014;-79
2022/06/08 11:21:58;;;;;;;;;;;23.90;99.90;;;;;;5119054;27;19926;-80
2022/06/08 11:24:34;;;;;;;;;;;24.10;99.90;;;;;;5122493;27;19919;-80
2022/06/08 11:27:09;;;;;;;;;;;24.40;99.90;;;;;;5117512;27;19927;-80
2022/06/08 11:29:35;;;;;;;;;;;24.70;99.90;;;;;;5113163;28;19972;-80
2022/06/08 11:32:00;;;;;;;;;;;24.90;99.90;;;;;;5111709;28;19919;-80
2022/06/08 11:34:50;;;;;;;;;;;24.90;99.90;;;;;;5126499;27;20312;-80
2022/06/08 11:37:22;;;;;;;;;;;25.00;99.90;;;;;;5122113;27;20262;-79
2022/06/08 11:39:58;;;;;;;;;;;24.90;98.60;;;;;;5124723;28;19987;-80
2022/06/08 11:42:31;;;;;;;;;;;24.60;99.10;;;;;;5116136;27;19930;-79
2022/06/08 11:44:57;;;;;;;;;;;24.40;99.90;;;;;;5113359;28;20028;-80
2022/06/08 11:47:34;;;;;;;;;;;24.30;99.90;;;;;;5114054;28;19920;-79
2022/06/08 11:50:16;;;;;;;;;;;24.10;99.90;;;;;;5112307;27;19919;-80
2022/06/08 11:52:43;;;;;;;;;;;24.00;99.90;;;;;;5113378;27;19982;-79
2022/06/08 11:55:15;;;;;;;;;;;23.80;99.90;;;;;;5115375;27;20056;-79
2022/06/08 11:57:44;;;;;;;;;;;23.60;99.90;;;;;;5125418;27;20401;-79
2022/06/08 12:00:15;;;;;;;;;;;23.50;99.90;;;;;;5127547;27;20040;-79
2022/06/08 12:02:41;;;;;;;;;;;23.30;99.90;;;;;;5120878;27;19923;-79
2022/06/08 12:05:07;;;;;;;;;;;23.10;99.90;;;;;;5117275;27;20576;-80
2022/06/08 12:07:37;;;;;;;;;;;23.00;99.90;;;;;;5119023;27;19973;-80
2022/06/08 12:10:04;;;;;;;;;;;23.20;99.90;;;;;;5129840;27;20350;-79
2022/06/08 12:12:29;;;;;;;;;;;23.20;99.90;;;;;;5131977;27;19950;-79
2022/06/08 12:14:55;;;;;;;;;;;23.20;99.90;;;;;;5122561;27;20022;-79
2022/06/08 12:17:32;;;;;;;;;;;23.20;99.90;;;;;;5128421;27;19965;-79
2022/06/08 12:19:58;;;;;;;;;;;23.40;99.90;;;;;;5125843;27;19961;-80
2022/06/08 12:22:29;;;;;;;;;;;23.40;99.90;;;;;;5129289;27;19919;-79
2022/06/08 12:25:13;;;;;;;;;;;23.60;99.90;;;;;;5128774;27;19926;-80
2022/06/08 12:27:43;;;;;;;;;;;23.90;99.90;;;;;;5122439;27;19973;-79
2022/06/08 12:30:39;;;;;;;;;;;24.40;99.90;;;;;;5129734;27;20003;-79
2022/06/08 12:33:20;;;;;;;;;;;24.40;99.90;;;;;;5115698;27;19919;-79
2022/06/08 12:35:53;;;;;;;;;;;24.30;99.40;;;;;;5121943;27;20723;-80
2022/06/08 12:38:21;;;;;;;;;;;24.10;99.00;;;;;;5103185;27;19920;-80
2022/06/08 12:41:04;;;;;;;;;;;24.00;99.40;;;;;;5116181;27;19942;-79
2022/06/08 12:43:40;;;;;;;;;;;23.90;99.90;;;;;;5114516;27;19920;-80
2022/06/08 12:46:17;;;;;;;;;;;23.90;99.90;;;;;;5118042;27;19919;-80
2022/06/08 12:48:42;;;;;;;;;;;23.90;99.70;;;;;;5116379;27;20015;-80
2022/06/08 12:51:22;;;;;;;;;;;23.90;99.90;;;;;;5113990;27;20409;-80
2022/06/08 12:53:47;;;;;;;;;;;23.80;99.90;;;;;;5112666;27;19973;-80
2022/06/08 12:56:13;;;;;;;;;;;23.70;99.90;;;;;;5117771;27;19962;-80
2022/06/08 12:58:39;;;;;;;;;;;23.50;99.90;;;;;;5120635;27;19931;-79
2022/06/08 13:01:04;;;;;;;;;;;23.30;99.90;;;;;;5116891;27;20335;-79
2022/06/08 13:03:30;;;;;;;;;;;23.10;99.90;;;;;;5129956;27;19930;-80
2022/06/08 13:05:56;;;;;;;;;;;22.70;99.90;;;;;;5121304;27;20010;-80
2022/06/08 13:08:26;;;;;;;;;;;22.30;99.90;;;;;;5130876;27;19919;-79
2022/06/08 13:10:54;;;;;;;;;;;21.80;99.90;;;;;;5116591;27;19927;-79
2022/06/08 13:13:21;;;;;;;;;;;21.40;99.90;;;;;;5126108;27;19924;-77
2022/06/08 13:15:47;;;;;;;;;;;20.80;99.90;;;;;;5123322;27;19920;-78
2022/06/08 13:18:25;;;;;;;;;;;20.40;99.90;;;;;;5124691;27;20448;-79
2022/06/08 13:20:52;;;;;;;;;;;20.00;99.90;;;;;;5119338;27;19924;-79
2022/06/08 13:23:17;;;;;;;;;;;19.80;99.90;;;;;;5132571;27;19919;-79
2022/06/08 13:25:44;;;;;;;;;;;19.60;99.90;;;;;;5127659;27;19930;-80
2022/06/08 13:28:21;;;;;;;;;;;19.30;99.90;;;;;;5116014;27;19926;-79
2022/06/08 13:30:49;;;;;;;;;;;19.10;99.90;;;;;;5123263;27;19919;-79
2022/06/08 13:36:18;;;;;;;;;;;18.60;99.90;;;;;;5122491;27;20041;-79
2022/06/08 13:38:45;;;;;;;;;;;18.40;99.90;;;;;;5130966;27;19927;-79
2022/06/08 13:41:11;;;;;;;;;;;18.20;99.90;;;;;;5120296;27;19974;-79
2022/06/08 13:43:36;;;;;;;;;;;18.00;99.90;;;;;;5119196;27;20441;-79
2022/06/08 13:46:02;;;;;;;;;;;18.00;99.90;;;;;;5128393;27;20360;-80
2022/06/08 13:48:29;;;;;;;;;;;17.90;99.90;;;;;;5121686;27;19943;-80
2022/06/08 13:50:56;;;;;;;;;;;17.80;99.90;;;;;;5122898;27;19982;-80
2022/06/08 13:53:24;;;;;;;;;;;17.80;99.90;;;;;;5114398;27;19924;-79
2022/06/08 13:55:53;;;;;;;;;;;17.80;99.90;;;;;;5130327;27;20014;-80
2022/06/08 13:58:20;;;;;;;;;;;17.80;99.90;;;;;;5117369;27;19920;-80
2022/06/08 14:00:50;;;;;;;;;;;17.80;99.90;;;;;;5129826;27;19926;-80
2022/06/08 14:03:29;;;;;;;;;;;17.90;99.90;;;;;;5129136;27;19931;-80
2022/06/08 14:14:10;;;;;;;;;;;18.00;99.90;;;;;;5125691;27;19919;-80
2022/06/08 14:16:38;;;;;;;;;;;18.10;99.90;;;;;;5130649;27;19919;-80
2022/06/08 14:19:22;;;;;;;;;;;18.20;99.90;;;;;;5127373;27;19925;-80
2022/06/08 14:21:49;;;;;;;;;;;18.10;99.90;;;;;;5113083;27;19928;-80
2022/06/08 14:24:23;;;;;;;;;;;18.10;99.90;;;;;;5106601;28;20492;-80
2022/06/08 14:26:49;;;;;;;;;;;18.20;99.90;;;;;;5103896;27;19920;-80
2022/06/08 14:29:15;;;;;;;;;;;18.20;99.90;;;;;;5125501;27;19923;-79
2022/06/08 14:31:41;;;;;;;;;;;18.30;99.90;;;;;;5124434;27;19923;-80
2022/06/08 14:34:12;;;;;;;;;;;18.30;99.90;;;;;;5127653;27;19942;-80
2022/06/08 14:36:38;;;;;;;;;;;18.40;99.90;;;;;;5133023;27;19919;-80
2022/06/08 14:39:04;;;;;;;;;;;18.40;99.90;;;;;;5120762;27;20381;-80
2022/06/08 14:41:37;;;;;;;;;;;18.50;99.90;;;;;;5114412;27;19923;-80
2022/06/08 14:44:06;;;;;;;;;;;18.50;99.90;;;;;;5119939;27;19919;-80
2022/06/08 14:46:32;;;;;;;;;;;18.50;99.90;;;;;;5110641;27;19926;-80